createdAt,value
2023-02-06T00:00:25.260Z,-3.60
2023-02-06T00:02:55.186Z,-3.60
2023-02-06T00:05:25.074Z,-3.60
2023-02-06T00:07:54.955Z,-3.70
2023-02-06T00:10:27.758Z,-3.60
2023-02-06T00:12:57.781Z,-3.70
2023-02-06T00:15:27.709Z,-3.80
2023-02-06T00:17:57.566Z,-3.80
2023-02-06T00:20:27.454Z,-3.90
2023-02-06T00:22:57.309Z,-3.90
2023-02-06T00:25:29.771Z,-3.90
2023-02-06T00:27:59.637Z,-3.80
2023-02-06T00:30:29.753Z,-3.70
2023-02-06T00:32:59.646Z,-3.80
2023-02-06T00:35:29.666Z,-4.00
2023-02-06T00:38:00.143Z,-3.90
2023-02-06T00:40:32.635Z,-3.80
2023-02-06T00:43:02.471Z,-3.90
2023-02-06T00:45:32.437Z,-3.90
2023-02-06T00:48:02.399Z,-4.10
2023-02-06T00:50:32.469Z,-4.00
2023-02-06T00:53:02.298Z,-4.10
2023-02-06T00:55:34.993Z,-4.10
2023-02-06T00:58:05.149Z,-4.10
2023-02-06T01:00:35.444Z,-4.00
2023-02-06T01:03:05.790Z,-3.90
2023-02-06T01:05:35.983Z,-3.70
2023-02-06T01:08:06.162Z,-3.70
2023-02-06T01:10:38.679Z,-3.70
2023-02-06T01:13:08.626Z,-3.60
2023-02-06T01:15:39.268Z,-3.60
2023-02-06T01:18:09.352Z,-3.50
2023-02-06T01:20:39.834Z,-3.50
2023-02-06T01:23:10.608Z,-3.40
2023-02-06T01:25:43.136Z,-3.50
2023-02-06T01:28:13.044Z,-3.60
2023-02-06T01:30:43.069Z,-3.60
2023-02-06T01:33:12.942Z,-3.50
2023-02-06T01:35:42.822Z,-3.50
2023-02-06T01:38:12.680Z,-3.70
2023-02-06T01:40:45.148Z,-3.70
2023-02-06T01:43:21.206Z,-3.70
2023-02-06T01:45:51.502Z,-3.70
2023-02-06T01:48:35.766Z,-3.70
2023-02-06T01:51:08.827Z,-3.80
2023-02-06T01:53:39.503Z,-3.90
2023-02-06T01:56:12.966Z,-3.90
2023-02-06T01:58:46.710Z,-3.90
2023-02-06T02:01:16.763Z,-4.00
2023-02-06T02:03:52.153Z,-3.90
2023-02-06T02:06:27.056Z,-3.90
2023-02-06T02:08:59.225Z,-3.80
2023-02-06T02:11:35.273Z,-3.80
2023-02-06T02:14:10.160Z,-3.80
2023-02-06T02:16:52.149Z,-3.80
2023-02-06T02:20:10.830Z,-3.80
2023-02-06T02:22:55.754Z,-3.80
2023-02-06T02:25:51.337Z,-3.80
2023-02-06T02:29:18.444Z,-4.00
2023-02-06T02:32:32.180Z,-4.10
2023-02-06T02:35:25.257Z,-4.10
2023-02-06T02:38:06.461Z,-4.10
2023-02-06T02:40:48.012Z,-4.10
2023-02-06T02:43:36.425Z,-4.10
2023-02-06T02:46:15.602Z,-4.10
2023-02-06T02:48:49.406Z,-4.10
2023-02-06T02:51:22.159Z,-4.10
2023-02-06T02:53:52.112Z,-4.10
2023-02-06T02:56:26.494Z,-4.00
2023-02-06T02:59:01.682Z,-4.00
2023-02-06T03:01:36.678Z,-4.00
2023-02-06T03:04:11.874Z,-3.90
2023-02-06T03:06:58.886Z,-3.90
2023-02-06T03:09:44.292Z,-3.80
2023-02-06T03:12:22.970Z,-3.80
2023-02-06T03:14:59.014Z,-3.70
2023-02-06T03:17:39.261Z,-3.80
2023-02-06T03:20:12.358Z,-3.80
2023-02-06T03:22:47.227Z,-3.80
2023-02-06T03:25:23.009Z,-3.80
2023-02-06T03:27:56.336Z,-3.60
2023-02-06T03:30:27.651Z,-3.60
2023-02-06T03:33:04.613Z,-3.60
2023-02-06T03:35:38.972Z,-3.60
2023-02-06T03:38:12.210Z,-3.60
2023-02-06T03:40:43.977Z,-3.70
2023-02-06T03:43:18.896Z,-3.70
2023-02-06T03:45:53.282Z,-3.60
2023-02-06T03:48:30.327Z,-3.50
2023-02-06T03:51:05.454Z,-3.30
2023-02-06T03:53:40.426Z,-3.20
2023-02-06T03:56:14.822Z,-3.20
2023-02-06T03:58:44.786Z,-3.10
2023-02-06T04:01:15.520Z,-3.10
2023-02-06T04:03:45.422Z,-3.10
2023-02-06T04:06:15.341Z,-3.00
2023-02-06T04:08:47.970Z,-3.00
2023-02-06T04:11:18.024Z,-3.00
2023-02-06T04:13:47.924Z,-2.90
2023-02-06T04:16:17.932Z,-3.00
2023-02-06T04:18:48.020Z,-3.00
2023-02-06T04:21:18.072Z,-3.10
2023-02-06T04:23:50.556Z,-3.00
2023-02-06T04:26:20.515Z,-3.00
2023-02-06T04:28:50.387Z,-2.90
2023-02-06T04:31:20.478Z,-2.80
2023-02-06T04:33:51.295Z,-2.70
2023-02-06T04:36:21.236Z,-2.70
2023-02-06T04:38:53.865Z,-2.70
2023-02-06T04:41:23.967Z,-2.60
2023-02-06T04:43:55.119Z,-2.80
2023-02-06T04:46:25.253Z,-2.80
2023-02-06T04:48:55.402Z,-2.80
2023-02-06T04:51:25.386Z,-2.80
2023-02-06T04:53:57.882Z,-2.60
2023-02-06T04:56:28.223Z,-2.60
2023-02-06T04:58:58.225Z,-2.70
2023-02-06T05:01:28.634Z,-2.80
2023-02-06T05:03:58.536Z,-2.80
2023-02-06T05:06:29.737Z,-2.70
2023-02-06T05:09:02.709Z,-2.60
2023-02-06T05:11:32.585Z,-2.60
2023-02-06T05:14:02.610Z,-2.70
2023-02-06T05:16:32.537Z,-2.60
2023-02-06T05:19:02.640Z,-2.60
2023-02-06T05:21:32.638Z,-2.70
2023-02-06T05:24:05.106Z,-2.70
2023-02-06T05:26:34.988Z,-2.70
2023-02-06T05:29:04.892Z,-2.80
2023-02-06T05:31:34.890Z,-2.70
2023-02-06T05:34:04.883Z,-2.70
2023-02-06T05:36:34.742Z,-2.70
2023-02-06T05:39:07.389Z,-2.70
2023-02-06T05:41:37.250Z,-2.60
2023-02-06T05:44:07.620Z,-2.60
2023-02-06T05:46:37.566Z,-2.50
2023-02-06T05:49:08.182Z,-2.50
2023-02-06T05:51:38.051Z,-2.50
2023-02-06T05:54:10.610Z,-2.50
2023-02-06T05:56:40.488Z,-2.60
2023-02-06T05:59:10.394Z,-2.40
2023-02-06T06:01:40.282Z,-2.50
2023-02-06T06:04:10.240Z,-2.50
2023-02-06T06:06:40.246Z,-2.30
2023-02-06T06:09:12.735Z,-2.40
2023-02-06T06:11:42.679Z,-2.40
2023-02-06T06:14:14.151Z,-2.30
2023-02-06T06:16:44.037Z,-2.50
2023-02-06T06:19:14.028Z,-2.40
2023-02-06T06:21:43.934Z,-2.40
2023-02-06T06:24:16.474Z,-2.30
2023-02-06T06:26:46.621Z,-2.30
2023-02-06T06:29:16.493Z,-2.30
2023-02-06T06:31:46.458Z,-2.40
2023-02-06T06:34:16.405Z,-2.40
2023-02-06T06:36:46.364Z,-2.40
2023-02-06T06:39:18.866Z,-2.30
2023-02-06T06:41:48.772Z,-2.30
2023-02-06T06:44:18.670Z,-2.30
2023-02-06T06:46:48.555Z,-2.20
2023-02-06T06:49:18.569Z,-2.30
2023-02-06T06:51:48.436Z,-2.40
2023-02-06T06:54:22.150Z,-2.30
2023-02-06T06:56:52.131Z,-2.30
2023-02-06T06:59:22.061Z,-2.30
2023-02-06T07:01:52.614Z,-2.30
2023-02-06T07:04:23.122Z,-2.30
2023-02-06T07:06:53.043Z,-2.20
2023-02-06T07:09:25.747Z,-2.20
2023-02-06T07:11:55.673Z,-2.20
2023-02-06T07:14:25.843Z,-2.30
2023-02-06T07:16:56.320Z,-2.20
2023-02-06T07:19:26.247Z,-2.30
2023-02-06T07:21:56.209Z,-2.20
2023-02-06T07:24:28.651Z,-2.20
2023-02-06T07:26:59.011Z,-2.20
2023-02-06T07:29:28.929Z,-2.10
2023-02-06T07:31:58.916Z,-2.20
2023-02-06T07:34:29.208Z,-2.10
2023-02-06T07:36:59.837Z,-2.20
2023-02-06T07:39:32.361Z,-2.00
2023-02-06T07:42:02.222Z,-1.90
2023-02-06T07:44:32.076Z,-1.90
2023-02-06T07:47:02.360Z,-2.00
2023-02-06T07:49:32.214Z,-2.00
2023-02-06T07:52:02.092Z,-1.90
2023-02-06T07:54:34.969Z,-1.80
2023-02-06T07:57:04.923Z,-1.70
2023-02-06T07:59:34.898Z,-1.80
2023-02-06T08:02:04.805Z,-1.80
2023-02-06T08:04:36.070Z,-1.80
2023-02-06T08:07:06.413Z,-1.80
2023-02-06T08:09:39.009Z,-1.80
2023-02-06T08:12:11.697Z,-1.80
2023-02-06T08:14:45.813Z,-1.80
2023-02-06T08:17:17.478Z,-1.80
2023-02-06T08:19:48.250Z,-1.80
2023-02-06T08:22:18.490Z,-1.70
2023-02-06T08:24:50.985Z,-1.70
2023-02-06T08:27:20.940Z,-1.60
2023-02-06T08:29:51.774Z,-1.60
2023-02-06T08:32:22.004Z,-1.60
2023-02-06T08:34:51.920Z,-1.50
2023-02-06T08:37:22.085Z,-1.50
2023-02-06T08:39:54.686Z,-1.50
2023-02-06T08:42:24.653Z,-1.50
2023-02-06T08:44:55.046Z,-1.50
2023-02-06T08:47:24.967Z,-1.50
2023-02-06T08:49:54.857Z,-1.50
2023-02-06T08:52:25.329Z,-1.40
2023-02-06T08:54:57.788Z,-1.40
2023-02-06T08:57:27.703Z,-1.40
2023-02-06T08:59:57.946Z,-1.40
2023-02-06T09:02:27.818Z,-1.40
2023-02-06T09:04:57.702Z,-1.40
2023-02-06T09:07:27.566Z,-1.30
2023-02-06T09:10:00.122Z,-1.30
2023-02-06T09:12:29.994Z,-1.20
2023-02-06T09:14:59.881Z,-1.10
2023-02-06T09:17:31.611Z,-1.20
2023-02-06T09:20:01.662Z,-1.20
2023-02-06T09:22:34.099Z,-1.10
2023-02-06T09:25:06.678Z,-1.10
2023-02-06T09:27:36.578Z,-1.10
2023-02-06T09:30:07.770Z,-1.10
2023-02-06T09:32:37.963Z,-1.10
2023-02-06T09:35:09.300Z,-1.10
2023-02-06T09:37:39.197Z,-1.10
2023-02-06T09:40:15.571Z,-1.00
2023-02-06T09:42:47.164Z,-1.10
2023-02-06T09:45:23.073Z,-1.10
2023-02-06T09:47:57.078Z,-1.20
2023-02-06T09:50:33.421Z,-1.20
2023-02-06T09:53:16.638Z,-1.10
2023-02-06T09:55:54.041Z,-1.10
2023-02-06T09:58:29.627Z,-1.20
2023-02-06T10:01:10.408Z,-1.20
2023-02-06T10:04:02.220Z,-1.20
2023-02-06T10:06:39.464Z,-1.10
2023-02-06T10:09:15.957Z,-1.10
2023-02-06T10:11:54.526Z,-1.10
2023-02-06T10:14:31.408Z,-1.10
2023-02-06T10:17:04.363Z,-1.10
2023-02-06T10:19:44.015Z,-1.10
2023-02-06T10:22:21.156Z,-1.10
2023-02-06T10:25:00.848Z,-1.00
2023-02-06T10:27:36.267Z,-1.00
2023-02-06T10:30:07.777Z,-1.00
2023-02-06T10:32:50.786Z,-0.90
2023-02-06T10:35:35.160Z,-0.90
2023-02-06T10:38:45.584Z,-0.90
2023-02-06T10:41:26.779Z,-0.90
2023-02-06T10:44:04.874Z,-0.90
2023-02-06T10:46:44.895Z,-0.90
2023-02-06T10:49:24.966Z,-0.90
2023-02-06T10:51:59.134Z,-0.90
2023-02-06T10:54:34.611Z,-0.90
2023-02-06T10:57:06.354Z,-0.80
2023-02-06T10:59:48.062Z,-0.80
2023-02-06T11:02:24.650Z,-0.80
2023-02-06T11:05:02.217Z,-0.90
2023-02-06T11:07:36.877Z,-1.00
2023-02-06T11:10:07.308Z,-0.90
2023-02-06T11:12:42.076Z,-0.90
2023-02-06T11:15:26.270Z,-0.80
2023-02-06T11:17:57.406Z,-0.80
2023-02-06T11:20:33.302Z,-0.70
2023-02-06T11:23:20.047Z,-0.70
2023-02-06T11:26:09.030Z,-0.70
2023-02-06T11:28:43.254Z,-0.70
2023-02-06T11:31:15.843Z,-0.60
2023-02-06T11:33:53.946Z,-0.60
2023-02-06T11:36:30.556Z,-0.60
2023-02-06T11:39:03.037Z,-0.50
2023-02-06T11:41:34.385Z,-0.50
2023-02-06T11:44:06.680Z,-0.50
2023-02-06T11:46:40.421Z,-0.40
2023-02-06T11:49:29.231Z,-0.50
2023-02-06T11:52:03.819Z,-0.50
2023-02-06T11:54:36.696Z,-0.50
2023-02-06T11:57:11.108Z,-0.50
2023-02-06T11:59:55.018Z,-0.50
2023-02-06T12:02:32.353Z,-0.50
2023-02-06T12:05:07.769Z,-0.40
2023-02-06T12:07:45.698Z,-0.30
2023-02-06T12:10:18.582Z,-0.40
2023-02-06T12:12:53.377Z,-0.30
2023-02-06T12:15:45.395Z,-0.30
2023-02-06T12:18:23.585Z,-0.20
2023-02-06T12:20:59.058Z,-0.20
2023-02-06T12:23:36.212Z,-0.30
2023-02-06T12:26:11.849Z,-0.30
2023-02-06T12:28:52.235Z,-0.20
2023-02-06T12:31:32.204Z,-0.20
2023-02-06T12:34:14.195Z,-0.10
2023-02-06T12:37:00.136Z,-0.10
2023-02-06T12:39:35.116Z,-0.10
2023-02-06T12:42:36.307Z,-0.20
2023-02-06T12:45:31.691Z,-0.10
2023-02-06T12:48:06.722Z,-0.10
2023-02-06T12:50:45.700Z,0.00
2023-02-06T12:53:28.143Z,0.10
2023-02-06T12:56:06.742Z,0.10
2023-02-06T12:59:03.304Z,0.00
2023-02-06T13:01:56.184Z,0.10
2023-02-06T13:04:29.660Z,0.10
2023-02-06T13:07:09.912Z,0.10
2023-02-06T13:09:43.501Z,0.10
2023-02-06T13:12:18.222Z,0.10
2023-02-06T13:14:49.605Z,0.20
2023-02-06T13:17:23.280Z,0.10
2023-02-06T13:20:03.296Z,0.10
2023-02-06T13:22:50.428Z,0.10
2023-02-06T13:25:56.220Z,0.20
2023-02-06T13:28:56.040Z,0.20
2023-02-06T13:31:35.511Z,0.20
2023-02-06T13:34:10.994Z,0.20
2023-02-06T13:36:51.995Z,0.20
2023-02-06T13:39:35.045Z,0.10
2023-02-06T13:42:35.442Z,0.20
2023-02-06T13:45:08.645Z,0.10
2023-02-06T13:48:20.067Z,0.10
2023-02-06T13:51:32.939Z,0.10
2023-02-06T13:54:44.070Z,0.20
2023-02-06T13:57:31.276Z,0.30
2023-02-06T14:00:05.810Z,0.30
2023-02-06T14:02:40.919Z,0.30
2023-02-06T14:05:16.429Z,0.30
2023-02-06T14:08:16.325Z,0.30
2023-02-06T14:11:14.541Z,0.30
2023-02-06T14:14:02.792Z,0.30
2023-02-06T14:16:45.913Z,0.30
2023-02-06T14:19:28.634Z,0.20
2023-02-06T14:22:06.498Z,0.20
2023-02-06T14:25:04.648Z,0.20
2023-02-06T14:27:54.122Z,0.30
2023-02-06T14:30:36.130Z,0.30
2023-02-06T14:33:25.234Z,0.30
2023-02-06T14:36:09.328Z,0.30
2023-02-06T14:39:12.839Z,0.30
2023-02-06T14:41:42.960Z,0.30
2023-02-06T14:44:23.380Z,0.30
2023-02-06T14:46:53.458Z,0.30
2023-02-06T14:49:33.702Z,0.30
2023-02-06T14:52:04.830Z,0.30
2023-02-06T14:54:38.413Z,0.30
2023-02-06T14:57:17.283Z,0.30
2023-02-06T15:00:02.505Z,0.30
2023-02-06T15:02:39.163Z,0.30
2023-02-06T15:05:09.561Z,0.30
2023-02-06T15:07:41.606Z,0.30
2023-02-06T15:10:17.900Z,0.30
2023-02-06T15:12:55.033Z,0.30
2023-02-06T15:15:30.004Z,0.30
2023-02-06T15:18:02.947Z,0.30
2023-02-06T15:20:38.357Z,0.30
2023-02-06T15:23:18.086Z,0.30
2023-02-06T15:26:06.836Z,0.30
2023-02-06T15:28:39.418Z,0.20
2023-02-06T15:31:20.863Z,0.20
2023-02-06T15:33:53.571Z,0.20
2023-02-06T15:36:26.897Z,0.20
2023-02-06T15:38:56.903Z,0.10
2023-02-06T15:41:27.023Z,0.10
2023-02-06T15:44:03.677Z,0.10
2023-02-06T15:46:36.497Z,0.10
2023-02-06T15:49:11.076Z,0.00
2023-02-06T15:51:51.812Z,0.00
2023-02-06T15:54:24.692Z,0.00
2023-02-06T15:57:05.754Z,0.00
2023-02-06T15:59:41.629Z,-0.10
2023-02-06T16:02:25.205Z,-0.10
2023-02-06T16:04:56.946Z,-0.10
2023-02-06T16:07:30.812Z,-0.20
2023-02-06T16:10:06.980Z,-0.20
2023-02-06T16:12:39.480Z,-0.20
2023-02-06T16:15:31.794Z,-0.20
2023-02-06T16:18:22.265Z,-0.30
2023-02-06T16:20:52.301Z,-0.30
2023-02-06T16:23:29.184Z,-0.30
2023-02-06T16:26:07.406Z,-0.40
2023-02-06T16:28:48.524Z,-0.40
2023-02-06T16:31:19.238Z,-0.50
2023-02-06T16:33:54.185Z,-0.50
2023-02-06T16:36:26.841Z,-0.60
2023-02-06T16:39:03.571Z,-0.60
2023-02-06T16:41:37.630Z,-0.70
2023-02-06T16:44:13.213Z,-0.70
2023-02-06T16:46:43.210Z,-0.70
2023-02-06T16:49:20.194Z,-0.80
2023-02-06T16:51:52.933Z,-0.80
2023-02-06T16:54:28.524Z,-0.80
2023-02-06T16:57:03.746Z,-0.80
2023-02-06T16:59:33.652Z,-0.90
2023-02-06T17:02:03.581Z,-0.90
2023-02-06T17:04:36.100Z,-0.90
2023-02-06T17:07:06.063Z,-1.00
2023-02-06T17:09:35.983Z,-1.00
2023-02-06T17:12:06.037Z,-1.00
2023-02-06T17:14:35.938Z,-1.00
2023-02-06T17:17:06.640Z,-1.10
2023-02-06T17:19:40.073Z,-1.10
2023-02-06T17:22:11.987Z,-1.20
2023-02-06T17:24:44.092Z,-1.20
2023-02-06T17:27:19.978Z,-1.20
2023-02-06T17:29:51.307Z,-1.20
2023-02-06T17:32:23.014Z,-1.20
2023-02-06T17:34:58.268Z,-1.40
2023-02-06T17:37:28.166Z,-1.30
2023-02-06T17:39:58.055Z,-1.40
2023-02-06T17:42:28.088Z,-1.40
2023-02-06T17:44:57.971Z,-1.50
2023-02-06T17:47:28.059Z,-1.50
2023-02-06T17:50:00.762Z,-1.40
2023-02-06T17:52:30.672Z,-1.50
2023-02-06T17:55:00.551Z,-1.50
2023-02-06T17:57:31.077Z,-1.50
2023-02-06T18:00:00.973Z,-1.60
2023-02-06T18:02:30.987Z,-1.60
2023-02-06T18:05:04.188Z,-1.70
2023-02-06T18:07:34.238Z,-1.80
2023-02-06T18:10:04.163Z,-1.70
2023-02-06T18:12:34.225Z,-1.80
2023-02-06T18:15:04.482Z,-1.70
2023-02-06T18:17:34.364Z,-1.70
2023-02-06T18:20:07.800Z,-1.80
2023-02-06T18:22:41.339Z,-1.70
2023-02-06T18:25:14.594Z,-1.80
2023-02-06T18:27:46.323Z,-1.80
2023-02-06T18:30:18.755Z,-1.80
2023-02-06T18:32:48.651Z,-1.90
2023-02-06T18:35:21.298Z,-1.90
2023-02-06T18:37:51.838Z,-1.90
2023-02-06T18:40:22.411Z,-1.90
2023-02-06T18:42:58.282Z,-1.90
2023-02-06T18:45:34.265Z,-1.80
2023-02-06T18:48:04.819Z,-1.80
2023-02-06T18:50:40.665Z,-1.90
2023-02-06T18:53:11.413Z,-1.90
2023-02-06T18:55:41.373Z,-2.00
2023-02-06T18:58:11.452Z,-2.00
2023-02-06T19:00:43.404Z,-2.00
2023-02-06T19:03:13.383Z,-2.10
2023-02-06T19:05:45.847Z,-2.10
2023-02-06T19:08:15.734Z,-2.10
2023-02-06T19:10:45.693Z,-2.10
2023-02-06T19:13:15.581Z,-2.20
2023-02-06T19:15:45.469Z,-2.20
2023-02-06T19:18:15.358Z,-2.20
2023-02-06T19:20:47.811Z,-2.30
2023-02-06T19:23:17.770Z,-2.30
2023-02-06T19:25:47.690Z,-2.30
2023-02-06T19:28:17.573Z,-2.40
2023-02-06T19:30:47.493Z,-2.40
2023-02-06T19:33:17.674Z,-2.40
2023-02-06T19:35:50.179Z,-2.40
2023-02-06T19:38:20.073Z,-2.30
2023-02-06T19:40:50.003Z,-2.40
2023-02-06T19:43:20.002Z,-2.50
2023-02-06T19:45:49.924Z,-2.60
2023-02-06T19:48:19.820Z,-2.60
2023-02-06T19:50:52.285Z,-2.70
2023-02-06T19:53:22.157Z,-2.70
2023-02-06T19:55:52.361Z,-2.80
2023-02-06T19:58:22.232Z,-2.80
2023-02-06T20:00:54.728Z,-2.80
2023-02-06T20:03:25.311Z,-2.90
2023-02-06T20:05:58.456Z,-2.90
2023-02-06T20:08:37.283Z,-2.80
2023-02-06T20:11:08.744Z,-2.90
2023-02-06T20:13:40.098Z,-3.00
2023-02-06T20:16:18.178Z,-3.00
2023-02-06T20:18:48.049Z,-3.00
2023-02-06T20:21:31.399Z,-2.90
2023-02-06T20:24:05.132Z,-2.90
2023-02-06T20:26:38.214Z,-2.90
2023-02-06T20:29:10.049Z,-3.10
2023-02-06T20:31:40.044Z,-3.10
2023-02-06T20:34:09.996Z,-3.10
2023-02-06T20:36:42.471Z,-3.00
2023-02-06T20:39:14.940Z,-3.00
2023-02-06T20:41:45.572Z,-2.90
2023-02-06T20:44:16.882Z,-2.90
2023-02-06T20:46:46.905Z,-2.90
2023-02-06T20:49:19.752Z,-2.90
2023-02-06T20:51:53.436Z,-2.90
2023-02-06T20:54:24.961Z,-2.90
2023-02-06T20:56:54.973Z,-2.90
2023-02-06T20:59:25.766Z,-2.90
2023-02-06T21:01:55.741Z,-2.90
2023-02-06T21:04:25.737Z,-3.10
2023-02-06T21:06:58.238Z,-3.20
2023-02-06T21:09:28.285Z,-3.20
2023-02-06T21:11:58.156Z,-3.30
2023-02-06T21:14:29.999Z,-3.30
2023-02-06T21:17:00.309Z,-3.30
2023-02-06T21:19:30.189Z,-3.30
2023-02-06T21:22:03.160Z,-3.40
2023-02-06T21:24:33.080Z,-3.30
2023-02-06T21:27:02.941Z,-3.20
2023-02-06T21:29:32.839Z,-3.30
2023-02-06T21:32:13.042Z,-3.40
2023-02-06T21:34:44.586Z,-3.50
2023-02-06T21:37:17.051Z,-3.50
2023-02-06T21:39:47.408Z,-3.60
2023-02-06T21:42:19.274Z,-3.60
2023-02-06T21:44:49.312Z,-3.70
2023-02-06T21:47:19.468Z,-3.70
2023-02-06T21:49:49.345Z,-3.70
2023-02-06T21:52:21.813Z,-3.60
2023-02-06T21:54:51.701Z,-3.60
2023-02-06T21:57:21.747Z,-3.70
2023-02-06T21:59:51.637Z,-3.70
2023-02-06T22:02:21.526Z,-3.60
2023-02-06T22:04:51.400Z,-3.50
2023-02-06T22:07:23.854Z,-3.50
2023-02-06T22:09:53.733Z,-3.50
2023-02-06T22:12:23.621Z,-3.70
2023-02-06T22:14:53.507Z,-3.80
2023-02-06T22:17:23.408Z,-3.90
2023-02-06T22:19:53.418Z,-4.00
2023-02-06T22:22:25.915Z,-3.90
2023-02-06T22:24:55.774Z,-3.90
2023-02-06T22:27:25.721Z,-3.90
2023-02-06T22:29:55.830Z,-3.90
2023-02-06T22:32:25.695Z,-3.80
2023-02-06T22:34:55.609Z,-3.80
2023-02-06T22:37:28.257Z,-3.90
2023-02-06T22:39:58.408Z,-4.00
2023-02-06T22:42:28.528Z,-4.00
2023-02-06T22:44:58.480Z,-4.00
2023-02-06T22:47:28.430Z,-4.00
2023-02-06T22:49:58.320Z,-4.00
2023-02-06T22:52:45.120Z,-4.00
2023-02-06T22:55:15.873Z,-4.00
2023-02-06T22:57:45.749Z,-4.00
2023-02-06T23:00:18.522Z,-4.00
2023-02-06T23:02:48.479Z,-4.10
2023-02-06T23:05:18.636Z,-4.20
2023-02-06T23:07:51.070Z,-4.20
2023-02-06T23:10:21.137Z,-4.10
2023-02-06T23:12:51.015Z,-4.10
2023-02-06T23:15:20.990Z,-4.10
2023-02-06T23:17:52.750Z,-4.30
2023-02-06T23:20:22.882Z,-4.20
2023-02-06T23:22:55.317Z,-4.10
2023-02-06T23:25:25.188Z,-4.00
2023-02-06T23:27:55.090Z,-4.10
2023-02-06T23:30:25.190Z,-4.30
2023-02-06T23:32:55.325Z,-4.30
2023-02-06T23:35:25.235Z,-4.20
2023-02-06T23:37:57.714Z,-4.20
2023-02-06T23:40:27.613Z,-4.20
2023-02-06T23:42:57.531Z,-4.20
2023-02-06T23:45:28.203Z,-4.10
2023-02-06T23:47:58.305Z,-4.40
2023-02-06T23:50:29.149Z,-4.50
2023-02-06T23:53:01.594Z,-4.40
2023-02-06T23:55:31.686Z,-4.40
2023-02-06T23:58:01.585Z,-4.30
